createdAt,value
2018-12-13T00:04:02.054Z,4
2018-12-13T00:08:59.699Z,3.9
2018-12-13T00:13:57.403Z,3.8
2018-12-13T00:18:54.975Z,3.8
2018-12-13T00:23:52.740Z,3.9
2018-12-13T00:28:50.756Z,3.8
2018-12-13T00:33:48.428Z,3.9
2018-12-13T00:38:46.123Z,3.7
2018-12-13T00:43:44.111Z,3.6
2018-12-13T00:48:41.698Z,3.6
2018-12-13T00:53:39.924Z,3.5
2018-12-13T00:58:37.797Z,3.4
2018-12-13T01:03:35.756Z,3.4
2018-12-13T01:08:33.362Z,3.4
2018-12-13T01:13:31.295Z,3.4
2018-12-13T01:18:29.147Z,3.3
2018-12-13T01:23:27.095Z,3.3
2018-12-13T01:28:24.480Z,3.2
2018-12-13T01:33:22.314Z,3.2
2018-12-13T01:38:20.108Z,3.2
2018-12-13T01:43:17.771Z,3.2
2018-12-13T01:48:15.700Z,3.2
2018-12-13T01:53:13.597Z,3.2
2018-12-13T01:58:11.674Z,3.2
2018-12-13T02:03:09.588Z,3.3
2018-12-13T02:08:07.188Z,3.2
2018-12-13T02:13:05.009Z,3.2
2018-12-13T02:18:02.440Z,3.2
2018-12-13T02:23:01.193Z,3.2
2018-12-13T02:27:58.920Z,3.2
2018-12-13T02:32:56.928Z,3.2
2018-12-13T02:37:54.929Z,3.2
2018-12-13T02:42:52.580Z,3.2
2018-12-13T02:47:50.325Z,3.1
2018-12-13T02:52:48.178Z,3
2018-12-13T02:57:45.990Z,3
2018-12-13T03:02:43.826Z,2.1
2018-12-13T03:07:41.738Z,3
2018-12-13T03:12:39.789Z,3.1
2018-12-13T03:17:37.281Z,3
2018-12-13T03:22:35.332Z,3
2018-12-13T03:27:33.578Z,3
2018-12-13T03:32:31.417Z,3
2018-12-13T03:37:28.634Z,3
2018-12-13T03:42:26.437Z,3
2018-12-13T03:47:24.205Z,2.4
2018-12-13T03:52:21.948Z,3
2018-12-13T03:57:19.759Z,3
2018-12-13T04:02:17.855Z,3
2018-12-13T04:07:16.030Z,3
2018-12-13T04:12:13.703Z,2.9
2018-12-13T04:17:11.494Z,2.9
2018-12-13T04:22:09.603Z,2.9
2018-12-13T04:27:07.519Z,2.8
2018-12-13T04:32:05.365Z,2.8
2018-12-13T04:37:03.204Z,2.7
2018-12-13T04:42:01.136Z,2.4
2018-12-13T04:46:59.139Z,2.4
2018-12-13T04:51:57.217Z,2.3
2018-12-13T04:56:54.640Z,2.1
2018-12-13T05:01:52.680Z,2
2018-12-13T05:06:49.930Z,2
2018-12-13T05:11:48.008Z,2.1
2018-12-13T05:16:45.981Z,2
2018-12-13T05:21:43.983Z,2
2018-12-13T05:26:42.091Z,2
2018-12-13T05:31:39.772Z,2
2018-12-13T05:36:37.457Z,2
2018-12-13T05:41:35.213Z,2
2018-12-13T05:46:33.642Z,1.2
2018-12-13T05:51:31.086Z,2
2018-12-13T05:56:29.522Z,2.1
2018-12-13T06:01:27.392Z,2.1
2018-12-13T06:06:25.227Z,2.1
2018-12-13T06:11:23.618Z,1.9
2018-12-13T06:16:21.319Z,1.8
2018-12-13T06:21:19.366Z,2.2
2018-12-13T06:26:17.546Z,1.9
2018-12-13T06:31:15.028Z,2.2
2018-12-13T06:36:13.051Z,2.3
2018-12-13T06:41:10.637Z,2.3
2018-12-13T06:51:06.123Z,2.4
2018-12-13T06:56:04.350Z,2.5
2018-12-13T07:01:02.451Z,2.5
2018-12-13T07:05:59.962Z,2.5
2018-12-13T07:10:58.046Z,2.6
2018-12-13T07:15:56.049Z,2.6
2018-12-13T07:20:53.992Z,2.7
2018-12-13T07:25:52.245Z,2.7
2018-12-13T07:30:50.307Z,2.7
2018-12-13T07:35:48.208Z,2.5
2018-12-13T07:40:45.434Z,2.8
2018-12-13T07:45:43.478Z,2.9
2018-12-13T07:50:39.985Z,2.9
2018-12-13T07:55:37.934Z,2.9
2018-12-13T08:00:35.922Z,2.9
2018-12-13T08:05:33.917Z,2.8
2018-12-13T08:10:31.737Z,2.8
2018-12-13T08:15:29.385Z,2.8
2018-12-13T08:20:27.333Z,2.9
2018-12-13T08:25:25.568Z,3
2018-12-13T08:30:23.167Z,2.9
2018-12-13T08:35:20.905Z,3
2018-12-13T08:40:18.935Z,3
2018-12-13T08:45:16.663Z,3
2018-12-13T08:50:14.649Z,3
2018-12-13T08:55:13.516Z,2.5
2018-12-13T09:00:11.343Z,3
2018-12-13T09:05:09.594Z,3.2
2018-12-13T09:10:07.605Z,3.2
2018-12-13T09:15:05.325Z,3.2
2018-12-13T09:20:03.289Z,3.2
2018-12-13T09:25:01.333Z,3.3
2018-12-13T09:29:59.453Z,3.4
2018-12-13T09:34:57.437Z,3.5
2018-12-13T09:39:55.078Z,3.5
2018-12-13T09:44:53.034Z,3.6
2018-12-13T09:49:51.773Z,3.2
2018-12-13T09:54:49.920Z,3.8
2018-12-13T09:59:48.324Z,3.9
2018-12-13T10:04:46.352Z,3.9
2018-12-13T10:09:44.466Z,4
2018-12-13T10:14:42.776Z,4.4
2018-12-13T10:19:40.672Z,4.6
2018-12-13T10:24:39.043Z,4.7
2018-12-13T10:29:36.897Z,4.8
2018-12-13T10:34:34.880Z,4.9
2018-12-13T10:39:33.006Z,5.1
2018-12-13T10:44:30.620Z,5.1
2018-12-13T10:49:29.016Z,5.2
2018-12-13T10:54:26.825Z,5.2
2018-12-13T10:59:26.782Z,5.1
2018-12-13T11:04:26.178Z,5.2
2018-12-13T11:09:24.018Z,5.3
2018-12-13T11:14:21.840Z,5.3
2018-12-13T11:19:20.113Z,5.5
2018-12-13T11:24:18.144Z,5.6
2018-12-13T11:29:16.080Z,5.7
2018-12-13T11:34:13.718Z,5.8
2018-12-13T11:39:11.606Z,5.9
2018-12-13T11:44:09.386Z,6.1
2018-12-13T11:54:06.077Z,6.3
2018-12-13T11:59:04.031Z,6.5
2018-12-13T12:04:01.944Z,6.1
2018-12-13T12:08:59.978Z,6.3
2018-12-13T12:13:57.854Z,6.4
2018-12-13T12:18:55.919Z,6.6
2018-12-13T12:23:54.306Z,6.7
2018-12-13T12:28:52.502Z,6.1
2018-12-13T12:33:50.745Z,6.9
2018-12-13T12:38:48.933Z,6.9
2018-12-13T12:43:47.063Z,6.8
2018-12-13T12:48:45.179Z,6.9
2018-12-13T12:53:43.331Z,7.4
2018-12-13T12:58:41.475Z,6.8
2018-12-13T13:03:39.561Z,6.8
2018-12-13T13:08:37.661Z,6.8
2018-12-13T13:13:35.502Z,6.6
2018-12-13T13:18:38.985Z,7.1
2018-12-13T13:23:32.099Z,6.5
2018-12-13T13:28:30.799Z,7
2018-12-13T13:33:28.493Z,6.9
2018-12-13T13:38:26.265Z,6.6
2018-12-13T13:43:24.003Z,6.8
2018-12-13T13:48:22.228Z,6.2
2018-12-13T13:53:20.517Z,6.7
2018-12-13T13:58:19.061Z,6.6
2018-12-13T14:03:17.033Z,6.6
2018-12-13T14:08:15.202Z,6.5
2018-12-13T14:13:13.395Z,6.5
2018-12-13T14:18:11.727Z,6.4
2018-12-13T14:23:10.025Z,5.9
2018-12-13T14:28:08.616Z,6.3
2018-12-13T14:33:06.535Z,6.3
2018-12-13T14:38:04.637Z,6.3
2018-12-13T14:43:02.573Z,5.7
2018-12-13T14:48:01.023Z,6.2
2018-12-13T14:52:58.818Z,6.2
2018-12-13T14:57:57.210Z,6.1
2018-12-13T15:02:55.310Z,6.1
2018-12-13T15:07:53.384Z,6
2018-12-13T15:12:51.003Z,6
2018-12-13T15:17:49.552Z,6
2018-12-13T15:22:47.378Z,5.9
2018-12-13T15:27:45.734Z,5.9
2018-12-13T15:32:43.854Z,5.9
2018-12-13T15:37:41.871Z,5.9
2018-12-13T15:42:39.821Z,5.9
2018-12-13T15:47:37.907Z,5.8
2018-12-13T15:52:36.035Z,5.8
2018-12-13T15:57:34.736Z,5.8
2018-12-13T16:02:32.415Z,5.8
2018-12-13T16:07:31.074Z,5.7
2018-12-13T16:12:25.282Z,5.8
2018-12-13T16:17:23.401Z,5.7
2018-12-13T16:22:21.964Z,5.7
2018-12-13T16:27:20.492Z,5.7
2018-12-13T16:32:18.547Z,5.8
2018-12-13T16:37:17.326Z,5.8
2018-12-13T16:42:15.638Z,5.6
2018-12-13T16:47:14.074Z,5.7
2018-12-13T16:52:12.534Z,5.6
2018-12-13T16:57:11.035Z,5.6
2018-12-13T17:02:09.049Z,2
2018-12-13T17:07:06.904Z,5.4
2018-12-13T17:12:05.531Z,5.6
2018-12-13T17:17:03.038Z,5.6
2018-12-13T17:22:01.654Z,5.2
2018-12-13T17:26:59.769Z,5.4
2018-12-13T17:31:57.544Z,5.3
2018-12-13T17:36:55.650Z,5.3
2018-12-13T17:41:53.694Z,5.3
2018-12-13T17:46:52.790Z,5.2
2018-12-13T17:51:50.697Z,4.9
2018-12-13T17:56:49.542Z,5.1
2018-12-13T18:01:46.489Z,5.1
2018-12-13T18:06:44.568Z,5
2018-12-13T18:11:42.500Z,5
2018-12-13T18:16:43.329Z,5
2018-12-13T18:21:39.383Z,4.9
2018-12-13T18:26:37.650Z,4.9
2018-12-13T18:31:35.606Z,4.9
2018-12-13T18:36:34.437Z,4.9
2018-12-13T18:41:32.247Z,4.8
2018-12-13T18:46:30.289Z,4.8
2018-12-13T18:51:28.200Z,4.8
2018-12-13T18:56:26.480Z,4.8
2018-12-13T19:01:24.670Z,4.8
2018-12-13T19:06:22.775Z,4.8
2018-12-13T19:11:20.651Z,4.7
2018-12-13T19:16:18.714Z,4.8
2018-12-13T19:21:16.988Z,4.8
2018-12-13T19:26:15.330Z,4.8
2018-12-13T19:31:13.307Z,4.8
2018-12-13T19:36:11.447Z,4.7
2018-12-13T19:41:09.547Z,4.7
2018-12-13T19:46:07.773Z,4.8
2018-12-13T19:51:06.001Z,4.8
2018-12-13T19:56:04.668Z,4.8
2018-12-13T20:01:03.275Z,4.1
2018-12-13T20:06:01.547Z,4.8
2018-12-13T20:10:59.800Z,4.7
2018-12-13T20:15:58.011Z,4.6
2018-12-13T20:20:56.164Z,4.2
2018-12-13T20:25:54.635Z,4.7
2018-12-13T20:30:52.893Z,4.6
2018-12-13T20:35:51.076Z,4.6
2018-12-13T20:40:48.983Z,4.7
2018-12-13T20:45:47.028Z,4.7
2018-12-13T20:50:45.140Z,4.7
2018-12-13T20:55:43.466Z,4.7
2018-12-13T21:00:41.712Z,4.7
2018-12-13T21:05:40.149Z,4.8
2018-12-13T21:10:38.505Z,4.8
2018-12-13T21:15:36.889Z,4.8
2018-12-13T21:20:35.211Z,4.9
2018-12-13T21:25:33.624Z,4.8
2018-12-13T21:30:31.820Z,4.8
2018-12-13T21:35:30.362Z,4.8
2018-12-13T21:40:28.575Z,4.3
2018-12-13T21:45:26.628Z,4.8
2018-12-13T21:50:24.807Z,4.8
2018-12-13T21:55:23.452Z,4.8
2018-12-13T22:00:22.051Z,4.8
2018-12-13T22:05:19.956Z,4.8
2018-12-13T22:10:18.196Z,4.9
2018-12-13T22:15:16.222Z,4.9
2018-12-13T22:20:14.545Z,4.9
2018-12-13T22:25:12.685Z,4.5
2018-12-13T22:30:10.732Z,4.8
2018-12-13T22:35:09.096Z,4.8
2018-12-13T22:40:07.845Z,4.8
2018-12-13T22:45:06.167Z,4.2
2018-12-13T22:50:04.193Z,4.8
2018-12-13T22:55:02.587Z,4.8
2018-12-13T23:00:01.195Z,4.8
2018-12-13T23:04:59.720Z,4.9
2018-12-13T23:14:56.112Z,4.9
2018-12-13T23:19:54.586Z,4.9
2018-12-13T23:24:53.027Z,4.9
2018-12-13T23:29:51.011Z,3
2018-12-13T23:34:49.860Z,4.9
2018-12-13T23:39:47.887Z,4.8
2018-12-13T23:44:46.330Z,4.7
2018-12-13T23:49:44.406Z,4.7
2018-12-13T23:54:42.620Z,4.6
2018-12-13T23:59:41.077Z,4.6
